sensor_id;sensor_type;location;lat;lon;timestamp;temperature;humidity
32809;DHT22;19159;48.178;16.386;2024-03-23T00:55:41;18.10;74.90
32809;DHT22;19159;48.178;16.386;2024-03-23T00:58:06;18.10;75.10
32809;DHT22;19159;48.178;16.386;2024-03-23T01:00:32;18.00;75.10
32809;DHT22;19159;48.178;16.386;2024-03-23T01:02:58;18.10;75.20
32809;DHT22;19159;48.178;16.386;2024-03-23T01:05:23;18.10;75.10
32809;DHT22;19159;48.178;16.386;2024-03-23T01:07:49;18.10;75.10
32809;DHT22;19159;48.178;16.386;2024-03-23T01:10:15;18.10;75.10
32809;DHT22;19159;48.178;16.386;2024-03-23T01:12:41;18.10;75.30
32809;DHT22;19159;48.178;16.386;2024-03-23T01:15:06;18.10;75.20
32809;DHT22;19159;48.178;16.386;2024-03-23T01:17:32;18.10;75.10
32809;DHT22;19159;48.178;16.386;2024-03-23T01:19:58;18.10;75.30
32809;DHT22;19159;48.178;16.386;2024-03-23T01:22:23;18.10;75.20
32809;DHT22;19159;48.178;16.386;2024-03-23T01:24:49;18.10;75.20
32809;DHT22;19159;48.178;16.386;2024-03-23T01:27:15;18.10;75.10
32809;DHT22;19159;48.178;16.386;2024-03-23T01:29:40;18.10;75.00
32809;DHT22;19159;48.178;16.386;2024-03-23T01:32:06;18.10;74.90
32809;DHT22;19159;48.178;16.386;2024-03-23T01:34:32;18.10;74.90
32809;DHT22;19159;48.178;16.386;2024-03-23T01:36:58;18.20;74.90
32809;DHT22;19159;48.178;16.386;2024-03-23T01:39:24;18.10;74.80
32809;DHT22;19159;48.178;16.386;2024-03-23T01:41:50;18.10;74.90
32809;DHT22;19159;48.178;16.386;2024-03-23T01:44:15;18.10;75.00
32809;DHT22;19159;48.178;16.386;2024-03-23T01:46:41;18.20;75.00
32809;DHT22;19159;48.178;16.386;2024-03-23T01:49:08;18.20;75.00
32809;DHT22;19159;48.178;16.386;2024-03-23T01:51:34;18.20;75.20
32809;DHT22;19159;48.178;16.386;2024-03-23T01:54:01;18.20;75.20
32809;DHT22;19159;48.178;16.386;2024-03-23T01:56:32;18.20;75.00
32809;DHT22;19159;48.178;16.386;2024-03-23T01:59:05;18.20;74.90
32809;DHT22;19159;48.178;16.386;2024-03-23T02:01:31;18.20;74.90
32809;DHT22;19159;48.178;16.386;2024-03-23T02:03:57;18.20;75.10
32809;DHT22;19159;48.178;16.386;2024-03-23T02:06:24;18.20;75.30
32809;DHT22;19159;48.178;16.386;2024-03-23T02:08:50;18.20;75.40
32809;DHT22;19159;48.178;16.386;2024-03-23T02:11:15;18.20;75.50
32809;DHT22;19159;48.178;16.386;2024-03-23T02:13:41;18.20;75.50
32809;DHT22;19159;48.178;16.386;2024-03-23T02:16:07;18.20;75.40
32809;DHT22;19159;48.178;16.386;2024-03-23T02:18:33;18.20;75.40
32809;DHT22;19159;48.178;16.386;2024-03-23T02:20:59;18.20;75.40
32809;DHT22;19159;48.178;16.386;2024-03-23T02:23:25;18.20;75.40
32809;DHT22;19159;48.178;16.386;2024-03-23T02:25:51;18.20;75.40
32809;DHT22;19159;48.178;16.386;2024-03-23T02:28:16;18.20;75.50
32809;DHT22;19159;48.178;16.386;2024-03-23T02:30:42;18.20;75.50
32809;DHT22;19159;48.178;16.386;2024-03-23T02:33:08;18.20;75.70
32809;DHT22;19159;48.178;16.386;2024-03-23T02:35:34;18.10;75.90
32809;DHT22;19159;48.178;16.386;2024-03-23T02:38:00;18.20;77.00
32809;DHT22;19159;48.178;16.386;2024-03-23T02:40:26;18.20;76.30
32809;DHT22;19159;48.178;16.386;2024-03-23T02:42:52;18.20;76.10
32809;DHT22;19159;48.178;16.386;2024-03-23T02:45:18;18.20;76.10
32809;DHT22;19159;48.178;16.386;2024-03-23T02:47:44;18.10;76.00
32809;DHT22;19159;48.178;16.386;2024-03-23T02:50:09;18.10;76.00
32809;DHT22;19159;48.178;16.386;2024-03-23T02:52:35;18.10;76.10
32809;DHT22;19159;48.178;16.386;2024-03-23T02:55:01;18.10;75.90
32809;DHT22;19159;48.178;16.386;2024-03-23T02:57:27;18.20;76.00
32809;DHT22;19159;48.178;16.386;2024-03-23T02:59:53;18.10;76.10
32809;DHT22;19159;48.178;16.386;2024-03-23T03:02:20;18.10;76.10
32809;DHT22;19159;48.178;16.386;2024-03-23T03:04:45;18.10;76.00
32809;DHT22;19159;48.178;16.386;2024-03-23T03:07:11;18.10;76.00
32809;DHT22;19159;48.178;16.386;2024-03-23T03:09:37;18.10;76.10
32809;DHT22;19159;48.178;16.386;2024-03-23T03:12:05;18.10;76.40
32809;DHT22;19159;48.178;16.386;2024-03-23T03:14:31;18.10;76.40
32809;DHT22;19159;48.178;16.386;2024-03-23T03:16:56;18.10;76.30
32809;DHT22;19159;48.178;16.386;2024-03-23T03:19:22;18.10;76.50
32809;DHT22;19159;48.178;16.386;2024-03-23T03:21:47;18.10;76.40
32809;DHT22;19159;48.178;16.386;2024-03-23T03:24:13;18.00;76.20
32809;DHT22;19159;48.178;16.386;2024-03-23T03:26:39;18.00;76.30
32809;DHT22;19159;48.178;16.386;2024-03-23T03:29:05;17.90;76.30
32809;DHT22;19159;48.178;16.386;2024-03-23T03:31:31;17.90;76.30
32809;DHT22;19159;48.178;16.386;2024-03-23T03:33:56;17.90;76.30
32809;DHT22;19159;48.178;16.386;2024-03-23T03:36:22;17.90;76.40
32809;DHT22;19159;48.178;16.386;2024-03-23T03:38:48;17.90;76.30
32809;DHT22;19159;48.178;16.386;2024-03-23T03:41:13;17.90;76.20
32809;DHT22;19159;48.178;16.386;2024-03-23T03:43:39;17.90;76.40
32809;DHT22;19159;48.178;16.386;2024-03-23T03:46:05;17.90;76.20
32809;DHT22;19159;48.178;16.386;2024-03-23T03:48:33;17.90;76.30
32809;DHT22;19159;48.178;16.386;2024-03-23T03:50:59;17.90;76.30
32809;DHT22;19159;48.178;16.386;2024-03-23T03:53:24;17.90;76.20
32809;DHT22;19159;48.178;16.386;2024-03-23T03:55:50;17.80;76.20
32809;DHT22;19159;48.178;16.386;2024-03-23T03:58:16;17.80;76.30
32809;DHT22;19159;48.178;16.386;2024-03-23T04:00:41;17.70;76.40
32809;DHT22;19159;48.178;16.386;2024-03-23T04:03:07;17.70;76.50
32809;DHT22;19159;48.178;16.386;2024-03-23T04:05:33;17.70;76.50
32809;DHT22;19159;48.178;16.386;2024-03-23T04:07:58;17.70;76.60
32809;DHT22;19159;48.178;16.386;2024-03-23T04:10:24;17.70;76.40
32809;DHT22;19159;48.178;16.386;2024-03-23T04:12:50;17.70;76.50
32809;DHT22;19159;48.178;16.386;2024-03-23T04:15:16;17.70;77.10
32809;DHT22;19159;48.178;16.386;2024-03-23T04:17:42;17.70;76.30
32809;DHT22;19159;48.178;16.386;2024-03-23T04:20:08;17.70;76.40
32809;DHT22;19159;48.178;16.386;2024-03-23T04:22:37;17.70;76.70
32809;DHT22;19159;48.178;16.386;2024-03-23T04:25:03;17.70;76.60
32809;DHT22;19159;48.178;16.386;2024-03-23T04:27:35;17.70;76.50
32809;DHT22;19159;48.178;16.386;2024-03-23T04:30:02;17.70;76.50
32809;DHT22;19159;48.178;16.386;2024-03-23T04:32:29;17.70;76.50
32809;DHT22;19159;48.178;16.386;2024-03-23T04:34:55;17.70;76.50
32809;DHT22;19159;48.178;16.386;2024-03-23T04:37:21;17.70;76.50
32809;DHT22;19159;48.178;16.386;2024-03-23T04:39:47;17.70;76.40
32809;DHT22;19159;48.178;16.386;2024-03-23T04:42:15;17.70;76.30
32809;DHT22;19159;48.178;16.386;2024-03-23T04:44:41;17.70;76.40
32809;DHT22;19159;48.178;16.386;2024-03-23T04:47:07;17.70;76.60
32809;DHT22;19159;48.178;16.386;2024-03-23T04:49:33;17.70;76.50
32809;DHT22;19159;48.178;16.386;2024-03-23T04:51:58;17.80;76.60
32809;DHT22;19159;48.178;16.386;2024-03-23T04:54:24;17.80;76.50
32809;DHT22;19159;48.178;16.386;2024-03-23T04:56:50;17.80;76.40
32809;DHT22;19159;48.178;16.386;2024-03-23T04:59:15;17.70;76.40
32809;DHT22;19159;48.178;16.386;2024-03-23T05:01:41;17.70;76.50
32809;DHT22;19159;48.178;16.386;2024-03-23T05:04:08;17.70;76.50
32809;DHT22;19159;48.178;16.386;2024-03-23T05:06:34;17.70;76.80
32809;DHT22;19159;48.178;16.386;2024-03-23T05:09:00;17.70;76.70
32809;DHT22;19159;48.178;16.386;2024-03-23T05:11:31;17.80;76.90
32809;DHT22;19159;48.178;16.386;2024-03-23T05:13:57;17.80;77.10
32809;DHT22;19159;48.178;16.386;2024-03-23T05:16:23;17.80;76.90
32809;DHT22;19159;48.178;16.386;2024-03-23T05:18:49;17.80;76.80
32809;DHT22;19159;48.178;16.386;2024-03-23T05:21:14;17.80;76.70
32809;DHT22;19159;48.178;16.386;2024-03-23T05:23:40;17.80;76.60
32809;DHT22;19159;48.178;16.386;2024-03-23T05:26:06;17.80;76.80
32809;DHT22;19159;48.178;16.386;2024-03-23T05:28:31;17.80;76.60
32809;DHT22;19159;48.178;16.386;2024-03-23T05:30:57;17.90;76.60
32809;DHT22;19159;48.178;16.386;2024-03-23T05:33:23;17.80;76.60
32809;DHT22;19159;48.178;16.386;2024-03-23T05:35:57;17.80;76.80
32809;DHT22;19159;48.178;16.386;2024-03-23T05:38:22;17.80;76.90
32809;DHT22;19159;48.178;16.386;2024-03-23T05:40:58;17.90;76.80
32809;DHT22;19159;48.178;16.386;2024-03-23T05:43:24;17.90;76.80
32809;DHT22;19159;48.178;16.386;2024-03-23T05:45:58;18.00;76.70
32809;DHT22;19159;48.178;16.386;2024-03-23T05:48:24;18.00;76.70
32809;DHT22;19159;48.178;16.386;2024-03-23T05:50:50;18.10;76.70
32809;DHT22;19159;48.178;16.386;2024-03-23T05:53:16;18.00;76.80
32809;DHT22;19159;48.178;16.386;2024-03-23T05:55:42;18.00;77.10
32809;DHT22;19159;48.178;16.386;2024-03-23T05:58:08;17.90;77.00
32809;DHT22;19159;48.178;16.386;2024-03-23T06:00:34;17.90;77.20
32809;DHT22;19159;48.178;16.386;2024-03-23T06:02:59;18.10;77.20
32809;DHT22;19159;48.178;16.386;2024-03-23T06:05:25;18.10;77.10
32809;DHT22;19159;48.178;16.386;2024-03-23T06:07:51;18.10;77.00
32809;DHT22;19159;48.178;16.386;2024-03-23T06:10:16;18.10;77.00
32809;DHT22;19159;48.178;16.386;2024-03-23T06:12:43;18.10;77.20
32809;DHT22;19159;48.178;16.386;2024-03-23T06:15:09;18.00;77.30
32809;DHT22;19159;48.178;16.386;2024-03-23T06:17:39;17.90;77.40
32809;DHT22;19159;48.178;16.386;2024-03-23T06:20:05;17.90;77.40
32809;DHT22;19159;48.178;16.386;2024-03-23T06:22:35;17.90;77.30
32809;DHT22;19159;48.178;16.386;2024-03-23T06:25:01;18.00;77.40
32809;DHT22;19159;48.178;16.386;2024-03-23T06:27:26;17.90;77.20
32809;DHT22;19159;48.178;16.386;2024-03-23T06:29:52;18.00;77.10
32809;DHT22;19159;48.178;16.386;2024-03-23T06:32:18;18.00;77.00
32809;DHT22;19159;48.178;16.386;2024-03-23T06:34:44;18.10;76.70
32809;DHT22;19159;48.178;16.386;2024-03-23T06:37:10;18.10;76.50
32809;DHT22;19159;48.178;16.386;2024-03-23T06:39:39;18.10;76.30
32809;DHT22;19159;48.178;16.386;2024-03-23T06:42:05;18.00;76.10
32809;DHT22;19159;48.178;16.386;2024-03-23T06:44:31;18.00;76.00
32809;DHT22;19159;48.178;16.386;2024-03-23T06:46:57;17.90;76.20
32809;DHT22;19159;48.178;16.386;2024-03-23T06:49:23;18.00;76.20
32809;DHT22;19159;48.178;16.386;2024-03-23T06:51:49;18.00;76.20
32809;DHT22;19159;48.178;16.386;2024-03-23T06:54:17;18.00;76.10
32809;DHT22;19159;48.178;16.386;2024-03-23T06:56:46;18.10;76.00
32809;DHT22;19159;48.178;16.386;2024-03-23T06:59:12;18.10;75.80
32809;DHT22;19159;48.178;16.386;2024-03-23T07:01:38;18.10;75.70
32809;DHT22;19159;48.178;16.386;2024-03-23T07:04:04;18.10;75.50
32809;DHT22;19159;48.178;16.386;2024-03-23T07:06:30;18.00;75.40
32809;DHT22;19159;48.178;16.386;2024-03-23T07:08:57;18.00;75.40
32809;DHT22;19159;48.178;16.386;2024-03-23T07:11:23;18.00;75.20
32809;DHT22;19159;48.178;16.386;2024-03-23T07:13:52;18.00;75.30
32809;DHT22;19159;48.178;16.386;2024-03-23T07:16:22;18.10;75.50
32809;DHT22;19159;48.178;16.386;2024-03-23T07:18:49;18.00;75.40
32809;DHT22;19159;48.178;16.386;2024-03-23T07:21:15;18.10;75.60
32809;DHT22;19159;48.178;16.386;2024-03-23T07:23:44;18.20;75.50
32809;DHT22;19159;48.178;16.386;2024-03-23T07:26:12;18.20;75.50
32809;DHT22;19159;48.178;16.386;2024-03-23T07:28:38;18.20;75.40
32809;DHT22;19159;48.178;16.386;2024-03-23T07:31:10;18.10;75.40
32809;DHT22;19159;48.178;16.386;2024-03-23T07:33:37;18.20;75.50
32809;DHT22;19159;48.178;16.386;2024-03-23T07:36:04;18.20;75.50
32809;DHT22;19159;48.178;16.386;2024-03-23T07:38:31;18.30;75.50
32809;DHT22;19159;48.178;16.386;2024-03-23T07:41:08;18.40;75.30
32809;DHT22;19159;48.178;16.386;2024-03-23T07:43:38;18.40;75.30
32809;DHT22;19159;48.178;16.386;2024-03-23T07:46:04;18.50;75.10
32809;DHT22;19159;48.178;16.386;2024-03-23T07:48:30;18.50;75.10
32809;DHT22;19159;48.178;16.386;2024-03-23T07:51:17;18.70;75.00
32809;DHT22;19159;48.178;16.386;2024-03-23T07:53:44;18.80;74.70
32809;DHT22;19159;48.178;16.386;2024-03-23T07:56:11;18.90;74.60
32809;DHT22;19159;48.178;16.386;2024-03-23T07:58:38;19.00;74.80
32809;DHT22;19159;48.178;16.386;2024-03-23T08:01:09;19.30;75.00
32809;DHT22;19159;48.178;16.386;2024-03-23T08:03:36;19.60;75.20
32809;DHT22;19159;48.178;16.386;2024-03-23T08:06:16;20.20;74.80
32809;DHT22;19159;48.178;16.386;2024-03-23T08:08:47;20.40;72.60
32809;DHT22;19159;48.178;16.386;2024-03-23T08:11:14;20.80;72.10
32809;DHT22;19159;48.178;16.386;2024-03-23T08:13:40;21.00;71.00
32809;DHT22;19159;48.178;16.386;2024-03-23T08:16:07;21.10;69.90
32809;DHT22;19159;48.178;16.386;2024-03-23T08:18:34;21.50;70.10
32809;DHT22;19159;48.178;16.386;2024-03-23T08:21:02;21.60;68.70
32809;DHT22;19159;48.178;16.386;2024-03-23T08:23:29;21.90;68.70
32809;DHT22;19159;48.178;16.386;2024-03-23T08:26:01;22.30;67.00
32809;DHT22;19159;48.178;16.386;2024-03-23T08:28:28;22.90;67.50
32809;DHT22;19159;48.178;16.386;2024-03-23T08:30:54;23.40;65.80
32809;DHT22;19159;48.178;16.386;2024-03-23T08:33:20;23.70;64.60
32809;DHT22;19159;48.178;16.386;2024-03-23T08:38:19;24.60;63.30
32809;DHT22;19159;48.178;16.386;2024-03-23T08:40:44;25.20;63.60
32809;DHT22;19159;48.178;16.386;2024-03-23T08:43:10;25.80;63.60
32809;DHT22;19159;48.178;16.386;2024-03-23T08:45:36;26.40;63.50
32809;DHT22;19159;48.178;16.386;2024-03-23T08:48:01;26.90;62.40
32809;DHT22;19159;48.178;16.386;2024-03-23T08:50:27;27.50;61.20
32809;DHT22;19159;48.178;16.386;2024-03-23T08:52:52;27.90;58.90
32809;DHT22;19159;48.178;16.386;2024-03-23T08:55:18;28.20;57.80
32809;DHT22;19159;48.178;16.386;2024-03-23T08:57:44;28.60;57.60
32809;DHT22;19159;48.178;16.386;2024-03-23T09:00:10;28.90;55.30
32809;DHT22;19159;48.178;16.386;2024-03-23T09:02:37;29.00;54.50
32809;DHT22;19159;48.178;16.386;2024-03-23T09:05:03;29.30;54.70
32809;DHT22;19159;48.178;16.386;2024-03-23T09:07:31;29.40;53.00
32809;DHT22;19159;48.178;16.386;2024-03-23T09:09:56;29.50;52.50
32809;DHT22;19159;48.178;16.386;2024-03-23T09:12:22;29.20;52.30
32809;DHT22;19159;48.178;16.386;2024-03-23T09:14:49;29.30;50.50
32809;DHT22;19159;48.178;16.386;2024-03-23T09:17:15;29.50;52.20
32809;DHT22;19159;48.178;16.386;2024-03-23T09:19:40;30.30;52.70
32809;DHT22;19159;48.178;16.386;2024-03-23T09:22:06;31.10;52.00
32809;DHT22;19159;48.178;16.386;2024-03-23T09:24:32;31.70;51.20
32809;DHT22;19159;48.178;16.386;2024-03-23T09:26:57;32.20;49.80
32809;DHT22;19159;48.178;16.386;2024-03-23T09:29:23;32.30;47.40
32809;DHT22;19159;48.178;16.386;2024-03-23T09:31:49;32.00;47.50
32809;DHT22;19159;48.178;16.386;2024-03-23T09:34:14;31.80;46.80
32809;DHT22;19159;48.178;16.386;2024-03-23T09:36:40;32.30;48.10
32809;DHT22;19159;48.178;16.386;2024-03-23T09:39:07;32.90;49.10
32809;DHT22;19159;48.178;16.386;2024-03-23T09:41:35;33.50;47.30
32809;DHT22;19159;48.178;16.386;2024-03-23T09:44:01;33.70;47.50
32809;DHT22;19159;48.178;16.386;2024-03-23T09:46:27;33.80;45.70
32809;DHT22;19159;48.178;16.386;2024-03-23T09:48:55;34.10;45.50
32809;DHT22;19159;48.178;16.386;2024-03-23T09:51:21;34.70;46.40
32809;DHT22;19159;48.178;16.386;2024-03-23T09:53:49;35.20;46.50
32809;DHT22;19159;48.178;16.386;2024-03-23T09:56:15;34.90;43.60
32809;DHT22;19159;48.178;16.386;2024-03-23T09:58:42;35.00;45.50
32809;DHT22;19159;48.178;16.386;2024-03-23T10:01:09;34.90;44.30
32809;DHT22;19159;48.178;16.386;2024-03-23T10:03:46;33.80;43.60
32809;DHT22;19159;48.178;16.386;2024-03-23T10:06:12;33.40;45.50
32809;DHT22;19159;48.178;16.386;2024-03-23T10:08:38;33.20;45.20
32809;DHT22;19159;48.178;16.386;2024-03-23T10:11:16;33.00;44.70
32809;DHT22;19159;48.178;16.386;2024-03-23T10:13:43;32.30;42.90
32809;DHT22;19159;48.178;16.386;2024-03-23T10:16:09;31.50;44.40
32809;DHT22;19159;48.178;16.386;2024-03-23T10:18:39;31.00;45.30
32809;DHT22;19159;48.178;16.386;2024-03-23T10:23:40;30.20;46.70
32809;DHT22;19159;48.178;16.386;2024-03-23T10:26:23;30.20;47.80
32809;DHT22;19159;48.178;16.386;2024-03-23T10:28:57;30.40;47.90
32809;DHT22;19159;48.178;16.386;2024-03-23T10:31:28;30.30;47.60
32809;DHT22;19159;48.178;16.386;2024-03-23T10:33:54;30.30;47.70
32809;DHT22;19159;48.178;16.386;2024-03-23T10:36:24;30.10;46.90
32809;DHT22;19159;48.178;16.386;2024-03-23T10:38:51;29.80;46.70
32809;DHT22;19159;48.178;16.386;2024-03-23T10:41:18;29.70;47.40
32809;DHT22;19159;48.178;16.386;2024-03-23T10:43:48;29.80;47.70
32809;DHT22;19159;48.178;16.386;2024-03-23T10:46:14;29.90;48.10
32809;DHT22;19159;48.178;16.386;2024-03-23T10:48:40;29.90;48.30
32809;DHT22;19159;48.178;16.386;2024-03-23T10:51:07;30.00;48.50
32809;DHT22;19159;48.178;16.386;2024-03-23T10:53:34;30.00;48.30
32809;DHT22;19159;48.178;16.386;2024-03-23T10:56:00;30.10;48.20
32809;DHT22;19159;48.178;16.386;2024-03-23T10:58:40;30.10;48.20
32809;DHT22;19159;48.178;16.386;2024-03-23T11:01:06;30.10;47.90
32809;DHT22;19159;48.178;16.386;2024-03-23T11:03:37;30.00;48.00
32809;DHT22;19159;48.178;16.386;2024-03-23T11:06:06;30.00;48.20
32809;DHT22;19159;48.178;16.386;2024-03-23T11:08:35;30.00;48.10
32809;DHT22;19159;48.178;16.386;2024-03-23T11:13:39;30.10;47.60
32809;DHT22;19159;48.178;16.386;2024-03-23T11:16:26;30.10;47.60
32809;DHT22;19159;48.178;16.386;2024-03-23T11:21:59;30.30;47.30
32809;DHT22;19159;48.178;16.386;2024-03-23T11:24:25;30.10;47.10
32809;DHT22;19159;48.178;16.386;2024-03-23T11:26:51;29.90;46.40
32809;DHT22;19159;48.178;16.386;2024-03-23T11:29:17;29.90;46.40
32809;DHT22;19159;48.178;16.386;2024-03-23T11:31:50;29.70;45.70
32809;DHT22;19159;48.178;16.386;2024-03-23T11:34:16;29.50;46.40
32809;DHT22;19159;48.178;16.386;2024-03-23T11:36:43;29.50;46.90
32809;DHT22;19159;48.178;16.386;2024-03-23T11:39:16;29.60;46.60
32809;DHT22;19159;48.178;16.386;2024-03-23T11:41:52;29.50;45.70
32809;DHT22;19159;48.178;16.386;2024-03-23T11:44:21;29.00;45.80
32809;DHT22;19159;48.178;16.386;2024-03-23T11:46:50;28.70;46.40
32809;DHT22;19159;48.178;16.386;2024-03-23T11:49:24;28.50;46.80
32809;DHT22;19159;48.178;16.386;2024-03-23T11:51:51;28.30;47.40
32809;DHT22;19159;48.178;16.386;2024-03-23T11:54:21;27.90;47.30
32809;DHT22;19159;48.178;16.386;2024-03-23T11:57:04;27.40;47.70
32809;DHT22;19159;48.178;16.386;2024-03-23T11:59:40;27.00;48.20
32809;DHT22;19159;48.178;16.386;2024-03-23T12:02:10;26.80;48.60
32809;DHT22;19159;48.178;16.386;2024-03-23T12:04:40;26.60;48.90
32809;DHT22;19159;48.178;16.386;2024-03-23T12:07:14;26.40;49.40
32809;DHT22;19159;48.178;16.386;2024-03-23T12:09:40;26.20;49.70
32809;DHT22;19159;48.178;16.386;2024-03-23T12:12:18;26.20;49.90
32809;DHT22;19159;48.178;16.386;2024-03-23T12:15:04;26.10;49.80
32809;DHT22;19159;48.178;16.386;2024-03-23T12:17:31;25.80;50.00
32809;DHT22;19159;48.178;16.386;2024-03-23T12:19:57;25.50;50.30
32809;DHT22;19159;48.178;16.386;2024-03-23T12:22:23;25.40;50.60
32809;DHT22;19159;48.178;16.386;2024-03-23T12:24:49;25.30;50.80
32809;DHT22;19159;48.178;16.386;2024-03-23T12:27:15;25.10;51.20
32809;DHT22;19159;48.178;16.386;2024-03-23T12:29:42;24.90;51.60
32809;DHT22;19159;48.178;16.386;2024-03-23T12:32:11;24.90;51.70
32809;DHT22;19159;48.178;16.386;2024-03-23T12:34:37;24.90;51.80
32809;DHT22;19159;48.178;16.386;2024-03-23T12:37:03;24.90;52.00
32809;DHT22;19159;48.178;16.386;2024-03-23T12:39:29;25.00;52.10
32809;DHT22;19159;48.178;16.386;2024-03-23T12:41:55;24.90;52.00
32809;DHT22;19159;48.178;16.386;2024-03-23T12:44:20;24.90;52.10
32809;DHT22;19159;48.178;16.386;2024-03-23T12:46:46;24.80;52.80
32809;DHT22;19159;48.178;16.386;2024-03-23T12:49:12;24.80;53.20
32809;DHT22;19159;48.178;16.386;2024-03-23T12:51:38;24.80;53.20
32809;DHT22;19159;48.178;16.386;2024-03-23T12:54:04;24.80;53.70
32809;DHT22;19159;48.178;16.386;2024-03-23T12:56:29;24.80;54.10
32809;DHT22;19159;48.178;16.386;2024-03-23T12:58:56;24.80;54.90
32809;DHT22;19159;48.178;16.386;2024-03-23T13:01:25;24.50;56.80
32809;DHT22;19159;48.178;16.386;2024-03-23T13:03:50;23.90;59.20
32809;DHT22;19159;48.178;16.386;2024-03-23T13:06:17;23.50;60.20
32809;DHT22;19159;48.178;16.386;2024-03-23T13:08:47;22.90;60.80
32809;DHT22;19159;48.178;16.386;2024-03-23T13:11:13;22.30;62.60
32809;DHT22;19159;48.178;16.386;2024-03-23T13:13:40;22.10;63.40
32809;DHT22;19159;48.178;16.386;2024-03-23T13:16:07;21.80;64.90
32809;DHT22;19159;48.178;16.386;2024-03-23T13:18:33;21.20;66.20
32809;DHT22;19159;48.178;16.386;2024-03-23T13:20:59;20.90;66.70
32809;DHT22;19159;48.178;16.386;2024-03-23T13:23:25;20.70;67.40
32809;DHT22;19159;48.178;16.386;2024-03-23T13:25:54;20.50;68.20
32809;DHT22;19159;48.178;16.386;2024-03-23T13:28:23;20.10;68.60
32809;DHT22;19159;48.178;16.386;2024-03-23T13:30:56;19.80;69.80
32809;DHT22;19159;48.178;16.386;2024-03-23T13:33:23;19.30;71.20
32809;DHT22;19159;48.178;16.386;2024-03-23T13:35:52;19.10;72.70
32809;DHT22;19159;48.178;16.386;2024-03-23T13:38:18;18.70;73.80
32809;DHT22;19159;48.178;16.386;2024-03-23T13:41:10;18.40;74.90
32809;DHT22;19159;48.178;16.386;2024-03-23T13:43:38;18.10;76.40
32809;DHT22;19159;48.178;16.386;2024-03-23T13:46:03;18.00;76.70
32809;DHT22;19159;48.178;16.386;2024-03-23T13:48:29;17.70;95.50
32809;DHT22;19159;48.178;16.386;2024-03-23T13:51:02;17.80;84.20
32809;DHT22;19159;48.178;16.386;2024-03-23T13:53:28;17.70;82.60
32809;DHT22;19159;48.178;16.386;2024-03-23T13:55:54;17.70;82.80
32809;DHT22;19159;48.178;16.386;2024-03-23T13:58:20;17.70;82.60
32809;DHT22;19159;48.178;16.386;2024-03-23T14:00:46;17.50;82.30
32809;DHT22;19159;48.178;16.386;2024-03-23T14:03:13;17.60;82.50
32809;DHT22;19159;48.178;16.386;2024-03-23T14:05:40;17.70;82.90
32809;DHT22;19159;48.178;16.386;2024-03-23T14:08:09;17.70;82.60
32809;DHT22;19159;48.178;16.386;2024-03-23T14:10:36;17.70;82.00
32809;DHT22;19159;48.178;16.386;2024-03-23T14:13:02;17.60;81.90
32809;DHT22;19159;48.178;16.386;2024-03-23T14:15:29;17.60;82.00
32809;DHT22;19159;48.178;16.386;2024-03-23T14:17:56;17.40;82.00
32809;DHT22;19159;48.178;16.386;2024-03-23T14:20:24;17.20;81.90
32809;DHT22;19159;48.178;16.386;2024-03-23T14:22:50;17.00;82.20
32809;DHT22;19159;48.178;16.386;2024-03-23T14:25:15;16.70;83.50
32809;DHT22;19159;48.178;16.386;2024-03-23T14:27:43;16.60;83.90
32809;DHT22;19159;48.178;16.386;2024-03-23T14:30:09;16.50;84.00
32809;DHT22;19159;48.178;16.386;2024-03-23T14:32:35;16.20;84.70
32809;DHT22;19159;48.178;16.386;2024-03-23T14:35:01;16.00;85.00
32809;DHT22;19159;48.178;16.386;2024-03-23T14:37:27;15.80;85.60
32809;DHT22;19159;48.178;16.386;2024-03-23T14:39:53;15.70;86.80
32809;DHT22;19159;48.178;16.386;2024-03-23T14:42:18;15.70;86.30
32809;DHT22;19159;48.178;16.386;2024-03-23T14:44:44;15.70;86.80
32809;DHT22;19159;48.178;16.386;2024-03-23T14:47:09;15.50;86.50
32809;DHT22;19159;48.178;16.386;2024-03-23T14:49:36;15.40;86.50
32809;DHT22;19159;48.178;16.386;2024-03-23T14:52:01;15.50;86.60
32809;DHT22;19159;48.178;16.386;2024-03-23T14:54:27;15.40;86.40
32809;DHT22;19159;48.178;16.386;2024-03-23T14:56:53;15.50;86.30
32809;DHT22;19159;48.178;16.386;2024-03-23T14:59:18;15.40;86.60
32809;DHT22;19159;48.178;16.386;2024-03-23T15:01:45;15.30;86.70
32809;DHT22;19159;48.178;16.386;2024-03-23T15:04:10;15.30;86.60
32809;DHT22;19159;48.178;16.386;2024-03-23T15:06:36;15.20;86.50
32809;DHT22;19159;48.178;16.386;2024-03-23T15:09:02;15.10;86.10
32809;DHT22;19159;48.178;16.386;2024-03-23T15:11:32;14.90;85.80
32809;DHT22;19159;48.178;16.386;2024-03-23T15:13:58;14.70;86.40
32809;DHT22;19159;48.178;16.386;2024-03-23T15:16:23;14.70;86.80
32809;DHT22;19159;48.178;16.386;2024-03-23T15:18:49;14.40;86.70
32809;DHT22;19159;48.178;16.386;2024-03-23T15:21:15;14.10;87.70
32809;DHT22;19159;48.178;16.386;2024-03-23T15:23:45;14.10;89.10
32809;DHT22;19159;48.178;16.386;2024-03-23T15:26:11;14.20;89.00
32809;DHT22;19159;48.178;16.386;2024-03-23T15:28:37;14.00;89.70
32809;DHT22;19159;48.178;16.386;2024-03-23T15:31:21;14.00;90.10
32809;DHT22;19159;48.178;16.386;2024-03-23T15:33:46;13.90;90.50
32809;DHT22;19159;48.178;16.386;2024-03-23T15:36:12;13.70;90.70
32809;DHT22;19159;48.178;16.386;2024-03-23T15:38:38;13.70;90.90
32809;DHT22;19159;48.178;16.386;2024-03-23T15:41:04;13.60;91.00
32809;DHT22;19159;48.178;16.386;2024-03-23T15:43:30;13.70;91.00
32809;DHT22;19159;48.178;16.386;2024-03-23T15:46:01;13.70;91.60
32809;DHT22;19159;48.178;16.386;2024-03-23T15:48:28;13.60;91.50
32809;DHT22;19159;48.178;16.386;2024-03-23T15:50:58;13.50;91.10
32809;DHT22;19159;48.178;16.386;2024-03-23T15:53:25;13.60;90.60
32809;DHT22;19159;48.178;16.386;2024-03-23T15:55:58;13.70;90.40
32809;DHT22;19159;48.178;16.386;2024-03-23T15:58:24;13.60;90.20
32809;DHT22;19159;48.178;16.386;2024-03-23T16:03:27;13.70;89.20
32809;DHT22;19159;48.178;16.386;2024-03-23T16:06:01;13.60;87.60
32809;DHT22;19159;48.178;16.386;2024-03-23T16:08:27;13.60;87.80
32809;DHT22;19159;48.178;16.386;2024-03-23T16:10:53;13.60;86.90
32809;DHT22;19159;48.178;16.386;2024-03-23T16:13:19;13.50;85.60
32809;DHT22;19159;48.178;16.386;2024-03-23T16:15:46;13.50;85.80
32809;DHT22;19159;48.178;16.386;2024-03-23T16:18:19;13.60;85.30
32809;DHT22;19159;48.178;16.386;2024-03-23T16:20:58;13.60;85.50
32809;DHT22;19159;48.178;16.386;2024-03-23T16:23:24;13.60;83.90